Time;durP1;ratioP1;P1;durP2;ratioP2;P2;SDS_P1;SDS_P2;PMS_P1;PMS_P2;Temp;Humidity;BMP_temperature;BMP_pressure;BME280_temperature;BME280_humidity;BME280_pressure;Samples;Min_cycle;Max_cycle;Signal;HPM_P1;HPM_P2
2023/12/07 00:01:15;;;;;;;16.27;9.65;;;;;;;-0.75;100.00;101991.28;5083712;28;20169;-77
2023/12/07 00:03:41;;;;;;;11.20;8.50;;;;;;;-0.78;100.00;101993.75;5115112;28;20478;-77
2023/12/07 00:06:06;;;;;;;16.85;8.82;;;;;;;-0.82;100.00;101995.31;5115063;28;20032;-77
2023/12/07 00:08:32;;;;;;;14.10;8.80;;;;;;;-0.85;100.00;101987.38;5102091;28;20039;-77
2023/12/07 00:10:57;;;;;;;13.25;9.50;;;;;;;-0.90;100.00;101988.91;5059877;28;20184;-77
2023/12/07 00:13:23;;;;;;;11.95;8.55;;;;;;;-0.93;100.00;101986.16;5109420;28;20038;-77
2023/12/07 00:15:48;;;;;;;13.80;9.77;;;;;;;-0.98;100.00;101991.16;5106143;28;20470;-77
2023/12/07 00:18:14;;;;;;;9.55;7.57;;;;;;;-1.02;100.00;101978.84;5096246;28;20138;-77
2023/12/07 00:20:39;;;;;;;12.75;8.90;;;;;;;-1.04;100.00;101987.41;5114949;28;20112;-77
2023/12/07 00:23:05;;;;;;;13.00;8.23;;;;;;;-1.09;100.00;101982.00;5114768;28;20036;-77
2023/12/07 00:25:31;;;;;;;10.13;8.27;;;;;;;-1.13;100.00;101980.09;5114826;28;20123;-77
2023/12/07 00:27:57;;;;;;;12.25;8.65;;;;;;;-1.18;100.00;101981.63;5096136;28;20579;-77
2023/12/07 00:30:22;;;;;;;12.38;8.82;;;;;;;-1.22;100.00;101984.88;5103874;28;20040;-77
2023/12/07 00:32:48;;;;;;;14.95;7.88;;;;;;;-1.23;100.00;101981.41;5079580;28;20055;-77
2023/12/07 00:35:14;;;;;;;13.13;7.82;;;;;;;-1.22;100.00;101984.88;5096304;28;20058;-77
2023/12/07 00:37:40;;;;;;;15.07;9.35;;;;;;;-1.24;100.00;101984.81;5114781;28;20039;-76
2023/12/07 00:40:05;;;;;;;17.33;8.10;;;;;;;-1.24;100.00;101991.72;5114586;28;20083;-76
2023/12/07 00:42:31;;;;;;;10.32;7.65;;;;;;;-1.27;100.00;101989.00;5096597;28;20043;-77
2023/12/07 00:44:57;;;;;;;12.23;8.95;;;;;;;-1.32;100.00;101989.66;5096188;28;20028;-77
2023/12/07 00:47:22;;;;;;;12.23;9.02;;;;;;;-1.36;100.00;101998.16;5096109;28;20062;-77
2023/12/07 00:49:48;;;;;;;10.77;7.68;;;;;;;-1.38;100.00;101993.72;5105841;28;20114;-77
2023/12/07 00:52:13;;;;;;;11.38;8.52;;;;;;;-1.42;100.00;101995.28;5087590;28;20046;-77
2023/12/07 00:54:39;;;;;;;15.13;9.05;;;;;;;-1.47;100.00;101988.97;5112221;28;20089;-77
2023/12/07 00:57:05;;;;;;;15.27;9.15;;;;;;;-1.50;100.00;101986.25;5113606;28;20035;-77
2023/12/07 00:59:33;;;;;;;11.48;7.55;;;;;;;-1.54;100.00;101987.81;5114366;28;20374;-77
2023/12/07 01:02:06;;;;;;;11.90;8.80;;;;;;;-1.56;100.00;101983.34;5096093;28;20406;-77
2023/12/07 01:04:32;;;;;;;13.43;8.90;;;;;;;-1.63;100.00;101987.41;5114103;28;20032;-77
2023/12/07 01:06:58;;;;;;;13.20;8.13;;;;;;;-1.64;100.00;101987.31;5081252;28;20040;-77
2023/12/07 01:09:24;;;;;;;16.00;9.10;;;;;;;-1.68;100.00;101988.00;5099687;28;20162;-77
2023/12/07 01:11:50;;;;;;;12.68;8.82;;;;;;;-1.73;100.00;101993.88;5114161;28;20085;-76
2023/12/07 01:14:16;;;;;;;14.38;9.00;;;;;;;-1.74;100.00;101999.88;5113985;28;20035;-77
2023/12/07 01:16:42;;;;;;;13.98;9.52;;;;;;;-1.70;100.00;101995.72;5095442;28;20428;-76
2023/12/07 01:19:08;;;;;;;13.68;9.32;;;;;;;-1.67;100.00;102006.25;5113998;28;20059;-77
2023/12/07 01:21:33;;;;;;;16.75;8.60;;;;;;;-1.59;100.00;102004.00;5113745;28;20132;-77
2023/12/07 01:24:02;;;;;;;15.63;8.35;;;;;;;-1.54;100.00;101987.81;5095618;28;20135;-77
2023/12/07 01:26:27;;;;;;;15.43;10.60;;;;;;;-1.50;100.00;102003.56;5113658;28;20044;-77
2023/12/07 01:28:53;;;;;;;14.43;10.25;;;;;;;-1.50;100.00;102001.84;5113174;28;20035;-77
2023/12/07 01:31:19;;;;;;;14.52;8.68;;;;;;;-1.49;100.00;101998.41;5113205;28;20036;-77
2023/12/07 01:33:44;;;;;;;14.23;10.05;;;;;;;-1.51;100.00;102002.63;5095344;28;20035;-77
2023/12/07 01:36:10;;;;;;;14.68;9.43;;;;;;;-1.52;100.00;101998.28;5113432;28;20046;-76
2023/12/07 01:38:36;;;;;;;16.25;9.20;;;;;;;-1.54;100.00;102003.38;5113528;28;20516;-76
2023/12/07 01:41:01;;;;;;;14.50;10.65;;;;;;;-1.56;100.00;102002.47;5113665;28;20122;-77
2023/12/07 01:43:27;;;;;;;14.63;10.38;;;;;;;-1.56;100.00;101999.84;5113440;28;20366;-76
2023/12/07 01:45:55;;;;;;;14.52;10.32;;;;;;;-1.56;100.00;102001.53;5113416;28;20032;-76
2023/12/07 01:48:26;;;;;;;16.45;10.85;;;;;;;-1.56;100.00;102004.13;5112477;28;20467;-76
2023/12/07 01:50:54;;;;;;;14.37;9.20;;;;;;;-1.58;100.00;102006.69;5097247;28;20036;-77
2023/12/07 01:53:21;;;;;;;14.27;10.20;;;;;;;-1.60;100.00;102008.31;5104828;28;20027;-77
2023/12/07 01:55:47;;;;;;;17.08;10.43;;;;;;;-1.64;100.00;102001.19;5077962;28;20024;-77
2023/12/07 01:58:16;;;;;;;14.95;9.43;;;;;;;-1.67;100.00;102000.19;5113095;28;20132;-76
2023/12/07 02:00:42;;;;;;;13.35;9.48;;;;;;;-1.71;100.00;102004.31;5112418;28;20457;-77
2023/12/07 02:03:07;;;;;;;15.95;10.00;;;;;;;-1.73;100.00;102004.25;5094841;28;20157;-76
2023/12/07 02:05:33;;;;;;;14.27;9.82;;;;;;;-1.71;100.00;102011.22;5094696;28;20030;-77
2023/12/07 02:07:58;;;;;;;14.93;10.27;;;;;;;-1.74;100.00;101999.00;5086068;28;20062;-76
2023/12/07 02:10:25;;;;;;;16.67;10.10;;;;;;;-1.71;100.00;102004.31;5101334;28;20144;-76
2023/12/07 02:12:52;;;;;;;16.83;10.35;;;;;;;-1.69;100.00;102004.41;5077548;28;20047;-76
2023/12/07 02:15:19;;;;;;;16.33;10.75;;;;;;;-1.69;100.00;102004.41;5112817;28;20592;-77
2023/12/07 02:18:21;;;;;;;15.52;9.98;;;;;;;-1.67;100.00;102007.97;5094553;28;20050;-76
2023/12/07 02:21:06;;;;;;;18.52;10.23;;;;;;;-1.67;100.00;102002.78;5102637;28;20031;-77
2023/12/07 02:23:32;;;;;;;15.07;10.50;;;;;;;-1.69;100.00;102002.69;5112491;28;20110;-76
2023/12/07 02:26:03;;;;;;;14.77;10.70;;;;;;;-1.69;100.00;102007.88;5077857;28;20110;-77
2023/12/07 02:28:28;;;;;;;20.37;11.17;;;;;;;-1.71;100.00;102009.50;5110717;28;20031;-76
2023/12/07 02:30:54;;;;;;;17.52;11.40;;;;;;;-1.70;100.00;102015.63;5077633;28;20043;-76
2023/12/07 02:33:20;;;;;;;20.90;12.13;;;;;;;-1.70;100.00;102019.09;5094128;28;20038;-76
2023/12/07 02:35:45;;;;;;;18.35;11.27;;;;;;;-1.66;100.00;102017.53;5077580;28;20523;-76
2023/12/07 02:38:12;;;;;;;23.52;13.50;;;;;;;-1.62;100.00;102011.66;5076712;28;20043;-76
2023/12/07 02:40:40;;;;;;;22.23;13.20;;;;;;;-1.57;100.00;102005.84;5093905;28;20031;-76
2023/12/07 02:43:07;;;;;;;21.88;13.70;;;;;;;-1.53;100.00;101999.09;5112444;28;20047;-77
2023/12/07 02:45:33;;;;;;;26.40;12.85;;;;;;;-1.48;100.00;101995.00;5112281;28;20051;-76
2023/12/07 02:48:02;;;;;;;24.83;12.85;;;;;;;-1.43;100.00;101993.50;5112250;28;20028;-76
2023/12/07 02:50:28;;;;;;;25.70;13.80;;;;;;;-1.40;100.00;101995.34;5078894;28;20043;-76
2023/12/07 02:52:53;;;;;;;34.92;14.23;;;;;;;-1.38;100.00;101997.19;5082261;28;20047;-76
2023/12/07 02:55:19;;;;;;;27.42;13.02;;;;;;;-1.35;100.00;101994.72;5085488;28;20043;-76
2023/12/07 02:57:45;;;;;;;41.50;13.18;;;;;;;-1.30;100.00;101989.75;5088068;28;20046;-77
2023/12/07 03:00:13;;;;;;;28.25;12.15;;;;;;;-1.27;100.00;101992.47;5091521;28;20047;-76
2023/12/07 03:02:39;;;;;;;94.07;15.25;;;;;;;-1.25;100.00;101998.63;5079880;28;20145;-76
2023/12/07 03:05:06;;;;;;;79.43;15.02;;;;;;;-1.21;100.00;101992.78;5091814;28;20046;-76
2023/12/07 03:07:33;;;;;;;96.25;15.73;;;;;;;-1.17;100.00;101988.56;5100345;28;20180;-76
2023/12/07 03:09:59;;;;;;;112.03;14.80;;;;;;;-1.17;100.00;101996.38;5112005;28;20042;-76
2023/12/07 03:12:25;;;;;;;28.92;12.88;;;;;;;-1.15;100.00;101999.94;5111788;28;20127;-76
2023/12/07 03:14:50;;;;;;;184.45;21.20;;;;;;;-1.14;100.00;102012.09;5081680;28;20138;-76
2023/12/07 03:17:15;;;;;;;108.82;14.55;;;;;;;-1.17;100.00;102011.97;5109667;28;20036;-76
2023/12/07 03:19:41;;;;;;;104.82;20.13;;;;;;;-1.17;100.00;102010.25;5112090;28;20135;-76
2023/12/07 03:22:08;;;;;;;88.32;14.55;;;;;;;-1.21;100.00;102010.97;5111558;28;20039;-76
2023/12/07 03:24:37;;;;;;;181.70;19.38;;;;;;;-1.21;100.00;102004.84;5111875;28;20042;-76
2023/12/07 03:27:03;;;;;;;60.53;14.43;;;;;;;-1.24;100.00;102015.13;5111599;28;20035;-76
2023/12/07 03:29:29;;;;;;;113.20;14.80;;;;;;;-1.24;100.00;102012.50;5111306;28;20051;-76
2023/12/07 03:31:54;;;;;;;169.23;18.33;;;;;;;-1.24;100.00;102016.00;5099528;28;20044;-76
2023/12/07 03:34:20;;;;;;;65.88;12.85;;;;;;;-1.24;100.00;102016.00;5091311;28;20126;-76
2023/12/07 03:36:46;;;;;;;54.45;13.80;;;;;;;-1.29;100.00;102017.50;5093280;28;20036;-76
2023/12/07 03:39:14;;;;;;;69.97;14.68;;;;;;;-1.30;100.00;102014.03;5111678;28;20040;-76
2023/12/07 03:41:39;;;;;;;60.67;14.50;;;;;;;-1.34;100.00;102014.69;5111634;28;20050;-76
2023/12/07 03:44:05;;;;;;;56.78;14.35;;;;;;;-1.35;100.00;102020.72;5111689;28;20051;-76
2023/12/07 03:46:30;;;;;;;119.35;17.60;;;;;;;-1.37;100.00;102022.34;5111678;28;20038;-76
2023/12/07 03:48:56;;;;;;;106.55;16.02;;;;;;;-1.37;100.00;102014.56;5108746;28;20466;-76
2023/12/07 03:51:21;;;;;;;51.22;14.27;;;;;;;-1.35;100.00;102014.63;5085794;28;20061;-76
2023/12/07 03:53:47;;;;;;;62.05;12.32;;;;;;;-1.34;100.00;102026.78;5093504;28;20217;-76
2023/12/07 03:56:26;;;;;;;112.28;16.70;;;;;;;-1.35;100.00;102028.50;5097116;28;20432;-76
2023/12/07 03:58:51;;;;;;;90.38;15.77;;;;;;;-1.36;100.00;102031.94;5111535;28;20032;-76
2023/12/07 04:01:17;;;;;;;87.72;15.48;;;;;;;-1.35;100.00;102038.03;5111340;28;20427;-76
2023/12/07 04:03:43;;;;;;;38.83;14.30;;;;;;;-1.37;100.00;102043.13;5111432;28;20061;-76
2023/12/07 04:06:08;;;;;;;82.90;14.38;;;;;;;-1.36;100.00;102041.44;5098266;28;20028;-76
2023/12/07 04:08:34;;;;;;;68.45;15.48;;;;;;;-1.34;100.00;102039.78;5079045;28;20587;-77
2023/12/07 04:11:00;;;;;;;92.03;15.75;;;;;;;-1.36;100.00;102034.53;5073132;28;20036;-76
2023/12/07 04:13:25;;;;;;;53.85;14.82;;;;;;;-1.34;100.00;102038.06;5107912;28;20074;-76
2023/12/07 04:15:51;;;;;;;75.28;16.65;;;;;;;-1.31;100.00;102034.75;5111539;28;20463;-76
2023/12/07 04:18:19;;;;;;;100.88;15.48;;;;;;;-1.31;100.00;102027.84;5092684;28;20067;-77
2023/12/07 04:20:45;;;;;;;78.75;16.10;;;;;;;-1.32;100.00;102031.25;5092963;28;20059;-76
2023/12/07 04:23:10;;;;;;;76.05;18.92;;;;;;;-1.30;100.00;102037.41;5093254;28;20092;-77
2023/12/07 04:25:36;;;;;;;61.95;14.50;;;;;;;-1.29;100.00;102040.88;5114950;28;20054;-76
2023/12/07 04:28:01;;;;;;;44.38;12.93;;;;;;;-1.28;100.00;102045.28;5114696;28;20031;-76
2023/12/07 04:30:27;;;;;;;79.20;16.20;;;;;;;-1.25;100.00;102042.81;5114515;28;20055;-76
2023/12/07 04:32:52;;;;;;;71.53;14.65;;;;;;;-1.24;100.00;102041.09;5114810;28;20039;-76
2023/12/07 04:35:18;;;;;;;47.05;13.57;;;;;;;-1.24;100.00;102048.91;5079334;28;20039;-76
2023/12/07 04:37:43;;;;;;;77.15;16.90;;;;;;;-1.24;100.00;102044.59;5096529;28;20040;-76
2023/12/07 04:40:10;;;;;;;70.60;17.55;;;;;;;-1.27;100.00;102044.44;5114550;28;20067;-76
2023/12/07 04:42:36;;;;;;;89.07;17.27;;;;;;;-1.26;100.00;102055.72;5091531;28;20070;-76
2023/12/07 04:45:01;;;;;;;76.28;15.30;;;;;;;-1.23;100.00;102055.91;5104987;28;20404;-76
2023/12/07 04:47:27;;;;;;;87.38;18.23;;;;;;;-1.25;100.00;102047.13;5095674;28;20039;-76
2023/12/07 04:49:52;;;;;;;56.30;14.85;;;;;;;-1.25;100.00;102040.22;5103012;28;20102;-76
2023/12/07 04:52:19;;;;;;;65.22;12.85;;;;;;;-1.21;100.00;102041.22;5076028;28;20040;-76
2023/12/07 04:54:44;;;;;;;56.78;14.93;;;;;;;-1.22;100.00;102044.66;5091820;28;20050;-76
2023/12/07 04:57:10;;;;;;;35.25;13.93;;;;;;;-1.21;100.00;102039.56;5088579;28;20039;-76
2023/12/07 04:59:35;;;;;;;77.53;13.25;;;;;;;-1.19;100.00;102040.47;5095734;28;20112;-76
2023/12/07 05:02:02;;;;;;;56.03;14.20;;;;;;;-1.18;100.00;102038.81;5113796;28;20437;-76
2023/12/07 05:04:27;;;;;;;59.58;14.98;;;;;;;-1.19;100.00;102030.09;5113902;28;20142;-76
2023/12/07 05:06:53;;;;;;;44.53;13.77;;;;;;;-1.18;100.00;102031.00;5060585;28;20036;-76
2023/12/07 05:09:18;;;;;;;33.17;12.55;;;;;;;-1.20;100.00;102030.03;5086436;28;20092;-76
2023/12/07 05:11:45;;;;;;;64.00;12.88;;;;;;;-1.20;100.00;102024.84;5106586;28;20059;-76
2023/12/07 05:14:11;;;;;;;103.97;15.38;;;;;;;-1.21;100.00;102025.63;5072875;28;20028;-76
2023/12/07 05:16:36;;;;;;;81.35;14.60;;;;;;;-1.20;100.00;102024.84;5074660;28;20094;-76
2023/12/07 05:19:02;;;;;;;85.07;16.08;;;;;;;-1.20;100.00;102027.44;5093329;28;20127;-76
2023/12/07 05:21:28;;;;;;;88.13;16.77;;;;;;;-1.19;100.00;102027.50;5064478;28;20032;-76
2023/12/07 05:23:53;;;;;;;50.72;14.85;;;;;;;-1.18;100.00;102031.88;5092926;28;20477;-76
2023/12/07 05:26:19;;;;;;;68.85;16.08;;;;;;;-1.20;100.00;102030.91;5074849;28;20126;-76
2023/12/07 05:28:44;;;;;;;95.22;18.52;;;;;;;-1.21;100.00;102023.03;5096775;28;20043;-76
2023/12/07 05:31:18;;;;;;;89.32;17.45;;;;;;;-1.19;100.00;102021.41;5093923;28;20094;-76
2023/12/07 05:33:44;;;;;;;123.78;19.90;;;;;;;-1.22;100.00;102019.56;5074285;28;20040;-76
2023/12/07 05:36:09;;;;;;;57.45;15.65;;;;;;;-1.22;100.00;102008.28;5073648;28;20020;-76
2023/12/07 05:38:35;;;;;;;65.97;15.77;;;;;;;-1.20;100.00;102009.25;5092853;28;20054;-76
2023/12/07 05:41:00;;;;;;;70.13;14.73;;;;;;;-1.18;100.00;102015.41;5092679;28;20086;-76
2023/12/07 05:43:26;;;;;;;62.88;12.77;;;;;;;-1.19;100.00;102009.28;5092549;28;20517;-76
2023/12/07 05:45:51;;;;;;;54.85;14.73;;;;;;;-1.19;100.00;102009.28;5092417;28;20028;-76
2023/12/07 05:48:17;;;;;;;70.47;12.95;;;;;;;-1.18;100.00;102012.81;5073857;28;20036;-76
2023/12/07 05:50:42;;;;;;;53.22;13.93;;;;;;;-1.16;100.00;102008.56;5085392;28;20038;-76
2023/12/07 05:53:08;;;;;;;49.22;13.45;;;;;;;-1.13;100.00;102008.69;5092626;28;20031;-76
2023/12/07 05:55:34;;;;;;;33.85;14.10;;;;;;;-1.12;100.00;102007.88;5081687;28;20028;-76
2023/12/07 05:57:59;;;;;;;65.75;13.48;;;;;;;-1.13;100.00;102008.69;5100751;28;20446;-76
2023/12/07 06:00:25;;;;;;;62.08;12.15;;;;;;;-1.14;100.00;102018.22;5092555;28;20024;-76
2023/12/07 06:02:50;;;;;;;131.55;14.05;;;;;;;-1.16;100.00;102012.06;5092475;28;20043;-76
2023/12/07 06:05:16;;;;;;;68.50;13.20;;;;;;;-1.14;100.00;102005.22;5071477;28;20206;-76
2023/12/07 06:07:41;;;;;;;52.63;14.55;;;;;;;-1.14;100.00;102007.81;5092705;28;20151;-76
2023/12/07 06:10:07;;;;;;;75.88;12.27;;;;;;;-1.14;100.00;102004.31;5093189;28;20064;-75
2023/12/07 06:12:33;;;;;;;62.95;11.45;;;;;;;-1.14;100.00;102001.69;5057524;28;20043;-76
2023/12/07 06:14:58;;;;;;;72.40;11.65;;;;;;;-1.11;100.00;102013.16;5074117;28;20486;-76
2023/12/07 06:17:24;;;;;;;19.40;9.82;;;;;;;-1.08;100.00;102012.38;5081540;28;20035;-76
2023/12/07 06:19:49;;;;;;;71.40;12.82;;;;;;;-1.08;100.00;102013.28;5077097;28;20481;-76
2023/12/07 06:22:14;;;;;;;21.65;10.85;;;;;;;-1.07;100.00;102019.34;5097906;28;20682;-76
2023/12/07 06:24:40;;;;;;;21.30;9.90;;;;;;;-1.05;100.00;102011.63;5092053;28;20035;-76
2023/12/07 06:27:06;;;;;;;35.35;7.78;;;;;;;-1.03;100.00;102018.69;5077231;28;20115;-76
2023/12/07 06:29:32;;;;;;;29.15;11.15;;;;;;;-1.01;100.00;102027.44;5079864;28;20047;-76
2023/12/07 06:31:57;;;;;;;54.03;11.50;;;;;;;-1.00;100.00;102023.13;5075193;28;20049;-76
2023/12/07 06:34:23;;;;;;;25.45;10.57;;;;;;;-1.01;100.00;102023.97;5091747;28;20042;-76
2023/12/07 06:36:48;;;;;;;65.32;12.23;;;;;;;-1.02;100.00;102025.66;5095353;28;20534;-76
2023/12/07 06:39:16;;;;;;;36.88;11.63;;;;;;;-0.99;100.00;102014.50;5106275;28;20035;-75
2023/12/07 06:41:42;;;;;;;35.92;11.60;;;;;;;-0.99;100.00;102010.19;5094484;28;20040;-76
2023/12/07 06:44:08;;;;;;;68.35;12.77;;;;;;;-0.96;100.00;102015.53;5099100;28;20036;-76
2023/12/07 06:46:33;;;;;;;81.63;12.45;;;;;;;-0.94;100.00;102005.19;5090829;28;20435;-76
2023/12/07 06:49:00;;;;;;;40.10;11.43;;;;;;;-0.94;100.00;102007.78;5099067;28;20122;-76
2023/12/07 06:51:25;;;;;;;72.10;12.25;;;;;;;-0.91;100.00;102002.75;5097169;28;20040;-76
2023/12/07 06:53:51;;;;;;;35.72;10.50;;;;;;;-0.89;100.00;101998.47;5075762;28;20737;-76
2023/12/07 06:56:16;;;;;;;63.35;9.80;;;;;;;-0.88;100.00;101995.06;5102907;28;20084;-76
2023/12/07 06:58:42;;;;;;;47.92;11.07;;;;;;;-0.90;100.00;101992.38;5064768;28;20050;-76
2023/12/07 07:01:07;;;;;;;66.10;11.80;;;;;;;-0.89;100.00;101990.66;5103265;28;20509;-76
2023/12/07 07:03:33;;;;;;;30.63;10.80;;;;;;;-0.86;100.00;101985.63;5100711;28;20508;-76
2023/12/07 07:05:59;;;;;;;30.27;10.10;;;;;;;-0.85;100.00;101989.09;5083690;28;20038;-76
2023/12/07 07:08:25;;;;;;;41.03;10.43;;;;;;;-0.83;100.00;101984.84;5091498;28;20044;-77
2023/12/07 07:10:50;;;;;;;34.38;9.90;;;;;;;-0.84;100.00;101983.97;5072830;28;20031;-76
2023/12/07 07:13:16;;;;;;;27.55;9.95;;;;;;;-0.81;100.00;101996.22;5093492;28;20028;-76
2023/12/07 07:15:43;;;;;;;33.10;10.25;;;;;;;-0.81;100.00;101997.09;5072889;28;20079;-76
2023/12/07 07:18:09;;;;;;;71.82;16.65;;;;;;;-0.81;100.00;101996.22;5104242;28;20040;-76
2023/12/07 07:20:35;;;;;;;49.17;10.68;;;;;;;-0.81;100.00;102001.44;5109308;28;20032;-77
2023/12/07 07:23:00;;;;;;;59.20;10.43;;;;;;;-0.81;100.00;101997.09;5070182;28;20079;-76
2023/12/07 07:25:26;;;;;;;33.28;9.45;;;;;;;-0.82;100.00;101997.91;5100657;28;20433;-77
2023/12/07 07:27:52;;;;;;;102.85;11.90;;;;;;;-0.82;100.00;101997.03;5095875;28;20062;-76
2023/12/07 07:30:18;;;;;;;52.15;11.43;;;;;;;-0.81;100.00;102011.81;5078071;28;20147;-77
2023/12/07 07:32:43;;;;;;;32.78;9.60;;;;;;;-0.76;100.00;102026.81;5072802;28;20603;-77
2023/12/07 07:35:11;;;;;;;31.00;10.45;;;;;;;-0.78;100.00;102032.75;5090822;28;20136;-77
2023/12/07 07:37:37;;;;;;;35.63;11.25;;;;;;;-0.80;100.00;102024.00;5100491;28;20474;-77
2023/12/07 07:40:06;;;;;;;29.65;11.45;;;;;;;-0.76;100.00;102025.91;5111126;28;20093;-76
2023/12/07 07:42:35;;;;;;;45.72;10.48;;;;;;;-0.73;100.00;102018.25;5109417;28;20042;-76
2023/12/07 07:45:00;;;;;;;19.98;9.43;;;;;;;-0.73;100.00;102010.44;5104628;28;20518;-77
2023/12/07 07:47:26;;;;;;;58.22;10.80;;;;;;;-0.72;100.00;102018.31;5103420;28;20077;-76
2023/12/07 07:49:51;;;;;;;38.20;9.77;;;;;;;-0.72;100.00;102017.41;5079969;28;20047;-76
2023/12/07 07:52:17;;;;;;;20.58;10.27;;;;;;;-0.73;100.00;102019.13;5057234;28;20127;-77
2023/12/07 07:54:42;;;;;;;19.92;8.93;;;;;;;-0.72;100.00;102025.22;5089006;28;20063;-77
2023/12/07 07:57:08;;;;;;;31.83;12.35;;;;;;;-0.72;100.00;102022.59;5105842;28;20054;-77
2023/12/07 07:59:33;;;;;;;20.08;10.18;;;;;;;-0.72;100.00;102027.81;5077881;28;20035;-77
2023/12/07 08:01:59;;;;;;;34.05;10.07;;;;;;;-0.74;100.00;102024.25;5095031;28;20437;-77
2023/12/07 08:04:24;;;;;;;37.05;10.95;;;;;;;-0.70;100.00;102010.56;5060023;28;20047;-77
2023/12/07 08:06:50;;;;;;;19.98;10.45;;;;;;;-0.71;100.00;102014.88;5098663;28;20088;-77
2023/12/07 08:09:15;;;;;;;85.25;12.63;;;;;;;-0.68;100.00;102007.19;5104304;28;20046;-77
2023/12/07 08:11:41;;;;;;;28.70;11.10;;;;;;;-0.65;100.00;102001.22;5108559;28;20101;-77
2023/12/07 08:14:06;;;;;;;33.13;12.63;;;;;;;-0.65;100.00;101994.31;5088293;28;20103;-77
2023/12/07 08:16:32;;;;;;;27.23;11.25;;;;;;;-0.62;100.00;102000.47;5109226;28;20478;-77
2023/12/07 08:18:58;;;;;;;47.17;13.55;;;;;;;-0.61;100.00;102004.88;5115122;28;20044;-77
2023/12/07 08:21:25;;;;;;;30.63;11.52;;;;;;;-0.58;100.00;102010.19;5096861;28;20130;-77
2023/12/07 08:23:51;;;;;;;22.75;10.02;;;;;;;-0.55;100.00;102008.59;5114830;28;20035;-77
2023/12/07 08:26:16;;;;;;;50.33;13.68;;;;;;;-0.53;100.00;102009.56;5079582;28;20047;-77
2023/12/07 08:28:42;;;;;;;42.17;13.30;;;;;;;-0.51;100.00;102001.84;5114565;28;20042;-77
2023/12/07 08:31:08;;;;;;;36.70;14.20;;;;;;;-0.51;100.00;102014.84;5096444;28;20055;-78
2023/12/07 08:33:34;;;;;;;31.70;13.07;;;;;;;-0.50;100.00;102011.41;5096417;28;20043;-77
2023/12/07 08:36:00;;;;;;;35.47;13.25;;;;;;;-0.47;100.00;102016.72;5114528;28;20028;-78
2023/12/07 08:38:28;;;;;;;33.95;13.38;;;;;;;-0.46;100.00;102002.91;5078356;28;20035;-78
2023/12/07 08:40:54;;;;;;;38.25;15.85;;;;;;;-0.45;100.00;101995.16;5095253;28;20039;-78
2023/12/07 08:43:22;;;;;;;25.85;12.73;;;;;;;-0.43;100.00;102009.13;5075742;28;20036;-78
2023/12/07 08:45:49;;;;;;;27.75;12.43;;;;;;;-0.38;100.00;102016.22;5080889;28;20036;-78
2023/12/07 08:48:14;;;;;;;31.60;14.07;;;;;;;-0.37;100.00;102010.19;5100118;28;20123;-78
2023/12/07 08:50:40;;;;;;;25.25;14.65;;;;;;;-0.36;100.00;102015.47;5104300;28;20115;-78
2023/12/07 08:53:06;;;;;;;38.70;14.93;;;;;;;-0.35;100.00;102021.56;5062643;28;20081;-78
2023/12/07 08:55:31;;;;;;;30.85;14.95;;;;;;;-0.32;100.00;102014.78;5074359;28;20089;-78
2023/12/07 08:57:57;;;;;;;45.50;13.82;;;;;;;-0.28;100.00;102010.59;5094252;28;20047;-78
2023/12/07 09:00:24;;;;;;;48.95;15.57;;;;;;;-0.28;100.00;102005.38;5093724;28;20068;-78
2023/12/07 09:02:50;;;;;;;28.38;15.68;;;;;;;-0.27;100.00;102014.97;5097284;28;20044;-78
2023/12/07 09:05:15;;;;;;;51.60;17.33;;;;;;;-0.24;100.00;102010.78;5080023;28;20119;-78
2023/12/07 09:07:41;;;;;;;34.17;16.00;;;;;;;-0.19;100.00;102010.09;5093435;28;20049;-78
2023/12/07 09:10:08;;;;;;;50.22;17.58;;;;;;;-0.17;100.00;102006.72;5092661;28;20089;-78
2023/12/07 09:12:35;;;;;;;34.50;15.85;;;;;;;-0.13;100.00;101998.19;5113762;28;20090;-78
2023/12/07 09:15:04;;;;;;;26.00;14.23;;;;;;;-0.10;100.00;101987.00;5095568;28;20048;-78
2023/12/07 09:17:29;;;;;;;28.58;13.80;;;;;;;-0.07;100.00;101985.44;5113811;28;20055;-78
2023/12/07 09:19:55;;;;;;;33.35;16.35;;;;;;;-0.07;100.00;101990.63;5095152;28;20070;-78
2023/12/07 09:22:21;;;;;;;25.27;12.65;;;;;;;-0.03;100.00;101989.03;5113273;28;20478;-78
2023/12/07 09:24:46;;;;;;;24.27;14.85;;;;;;;0.01;100.00;101995.25;5113484;28;20024;-78
2023/12/07 09:27:13;;;;;;;25.27;12.98;;;;;;;0.01;100.00;101997.88;5106277;28;20356;-77
2023/12/07 09:29:39;;;;;;;22.63;12.85;;;;;;;0.02;100.00;101995.31;5100349;28;20094;-77
2023/12/07 09:32:06;;;;;;;24.67;13.52;;;;;;;0.03;100.00;101985.78;5109221;28;20046;-78
2023/12/07 09:34:32;;;;;;;23.35;13.27;;;;;;;0.04;100.00;101996.25;5096171;28;20078;-77
2023/12/07 09:37:10;;;;;;;23.42;13.40;;;;;;;0.10;100.00;101993.00;5074651;28;20094;-77
2023/12/07 09:39:36;;;;;;;26.55;14.23;;;;;;;0.12;100.00;101992.22;5106290;28;20044;-77
2023/12/07 09:42:02;;;;;;;32.97;14.75;;;;;;;0.15;100.00;101983.69;5098621;28;20410;-77
2023/12/07 09:44:28;;;;;;;25.13;14.38;;;;;;;0.18;100.00;101974.25;5071481;28;20073;-78
2023/12/07 09:46:54;;;;;;;27.58;15.07;;;;;;;0.20;100.00;101976.94;5092008;28;20032;-78
2023/12/07 09:49:21;;;;;;;26.70;14.70;;;;;;;0.23;100.00;101977.03;5084771;28;20067;-78
2023/12/07 09:51:46;;;;;;;30.70;15.65;;;;;;;0.25;100.00;101972.78;5106641;28;20023;-77
2023/12/07 09:54:13;;;;;;;27.88;14.75;;;;;;;0.23;100.00;101964.00;5085772;28;20427;-77
2023/12/07 09:56:38;;;;;;;32.15;15.68;;;;;;;0.25;100.00;101962.34;5100871;28;20122;-77
2023/12/07 09:59:07;;;;;;;29.60;16.40;;;;;;;0.29;100.00;101960.75;5094458;28;20455;-77
2023/12/07 10:01:36;;;;;;;28.67;15.07;;;;;;;0.31;100.00;101954.75;5111951;28;20047;-77
2023/12/07 10:04:20;;;;;;;34.85;17.55;;;;;;;0.35;100.00;101946.25;5081133;28;20084;-77
2023/12/07 10:06:47;;;;;;;31.85;15.27;;;;;;;0.38;100.00;101940.25;5087900;28;20044;-77
2023/12/07 10:09:13;;;;;;;35.05;17.25;;;;;;;0.42;100.00;101935.22;5102284;28;20110;-77
2023/12/07 10:11:39;;;;;;;36.47;18.63;;;;;;;0.43;100.00;101921.34;5094028;28;20046;-77
2023/12/07 10:14:08;;;;;;;32.60;16.70;;;;;;;0.47;100.00;101924.06;5077082;28;20040;-77
2023/12/07 10:16:36;;;;;;;33.08;16.50;;;;;;;0.52;100.00;101927.72;5097815;28;20075;-77
2023/12/07 10:19:17;;;;;;;34.67;18.08;;;;;;;0.57;100.00;101914.03;5105442;28;20123;-77
2023/12/07 10:21:44;;;;;;;36.25;16.15;;;;;;;0.64;100.00;101917.72;5105320;28;20043;-77
2023/12/07 10:24:10;;;;;;;35.42;17.63;;;;;;;0.69;100.00;101915.28;5064218;28;20032;-77
2023/12/07 10:26:38;;;;;;;30.20;15.45;;;;;;;0.75;100.00;101910.31;5093715;28;20118;-77
2023/12/07 10:29:05;;;;;;;38.70;17.98;;;;;;;0.81;100.00;101907.91;5106401;28;20359;-77
2023/12/07 10:31:31;;;;;;;33.08;16.73;;;;;;;0.89;100.00;101898.66;5103262;28;20087;-77
2023/12/07 10:33:57;;;;;;;32.83;16.77;;;;;;;0.90;100.00;101891.72;5108278;28;20096;-77
2023/12/07 10:36:23;;;;;;;32.63;17.48;;;;;;;0.95;100.00;101883.19;5101112;28;20134;-77
2023/12/07 10:38:50;;;;;;;34.08;17.38;;;;;;;1.01;100.00;101874.69;5079410;28;20085;-77
2023/12/07 10:41:19;;;;;;;29.33;17.60;;;;;;;1.07;100.00;101882.72;5093540;28;20040;-77
2023/12/07 10:43:49;;;;;;;33.80;17.48;;;;;;;1.16;100.00;101876.91;5112160;28;20042;-77
2023/12/07 10:46:18;;;;;;;33.42;17.33;;;;;;;1.18;100.00;101875.25;5112123;28;20028;-77
2023/12/07 10:48:48;;;;;;;29.88;16.27;;;;;;;1.22;100.00;101874.53;5109156;28;20032;-77
2023/12/07 10:51:41;;;;;;;28.92;16.80;;;;;;;1.24;100.00;101858.09;5089476;28;20524;-77
2023/12/07 10:54:11;;;;;;;25.48;14.90;;;;;;;1.27;100.00;101859.91;5073984;28;20043;-77
2023/12/07 10:56:44;;;;;;;29.50;16.35;;;;;;;1.33;100.00;101854.88;5099914;28;20043;-77
2023/12/07 10:59:11;;;;;;;24.95;14.60;;;;;;;1.42;100.00;101857.78;5093860;28;20111;-77
2023/12/07 11:01:42;;;;;;;25.88;14.82;;;;;;;1.54;100.00;101864.25;5093401;28;20040;-77